Time;durP1;ratioP1;P1;durP2;ratioP2;P2;SDS_P1;SDS_P2;PMS_P1;PMS_P2;Temp;Humidity;BMP_temperature;BMP_pressure;BME280_temperature;BME280_humidity;BME280_pressure;Samples;Min_cycle;Max_cycle;Signal;HPM_P1;HPM_P2
2022/12/13 14:04:49;;;;;;;42.50;20.77;;;;;;;2.40;62.58;99552.02;2440140;80;27071;-86
2022/12/13 14:08:55;;;;;;;33.35;16.23;;;;;;;2.65;61.92;99568.98;2388993;82;25693;-84
2022/12/13 14:13:26;;;;;;;27.35;14.43;;;;;;;2.85;61.37;99563.38;2332772;84;26325;-85
2022/12/13 14:17:35;;;;;;;18.48;10.45;;;;;;;3.01;61.02;99563.19;2314689;84;25646;-86
2022/12/13 14:25:48;;;;;;;14.87;10.53;;;;;;;3.21;60.40;99570.43;2214596;88;26434;-85
2022/12/13 14:30:05;;;;;;;13.98;9.68;;;;;;;3.29;60.00;99566.86;2240402;87;26043;-87
2022/12/13 14:33:42;;;;;;;;;;;;;;;;;;;;;
2022/12/13 14:37:18;;;;;;;9.45;8.45;;;;;;;3.37;59.34;99569.73;2121415;92;25952;-87
2022/12/13 14:41:01;;;;;;;12.70;8.43;;;;;;;3.36;59.18;99574.00;2110857;92;25851;-86
2022/12/13 14:44:41;;;;;;;13.18;9.10;;;;;;;3.39;58.91;99570.27;2030488;96;25982;-85
2022/12/13 14:52:28;;;;;;;11.18;8.53;;;;;;;3.42;58.50;99574.25;2030872;97;25935;-86
2022/12/13 14:56:20;;;;;;;9.28;8.23;;;;;;;3.44;58.34;99574.30;2004682;98;25817;-86
2022/12/13 15:00:00;;;;;;;12.20;7.95;;;;;;;3.43;58.19;99587.59;1970529;99;25881;-84
2022/12/13 15:03:45;;;;;;;19.87;8.53;;;;;;;3.41;57.99;99582.81;1963160;97;25878;-85
2022/12/13 15:07:30;;;;;;;12.23;8.20;;;;;;;3.42;57.78;99586.27;1973255;98;25698;-85
2022/12/13 15:11:18;;;;;;;13.95;9.33;;;;;;;3.42;57.64;99587.13;2024208;97;25805;-85
2022/12/13 15:15:06;;;;;;;13.20;9.25;;;;;;;3.39;57.55;99591.29;2028734;96;26501;-84
2022/12/13 15:18:35;;;;;;;13.30;8.97;;;;;;;3.37;57.38;99593.79;2022170;96;25825;-84
2022/12/13 15:22:14;;;;;;;10.58;8.98;;;;;;;3.35;57.25;99591.58;1992671;95;26232;-82
2022/12/13 15:25:51;;;;;;;12.90;9.88;;;;;;;3.28;57.16;99589.58;1973525;97;25882;-84
2022/12/13 15:29:45;;;;;;;14.40;9.63;;;;;;;3.21;57.13;99586.30;1981663;98;25802;-85
2022/12/13 15:33:30;;;;;;;15.43;10.40;;;;;;;3.16;57.09;99589.95;1978862;96;25977;-81
2022/12/13 15:37:16;;;;;;;13.53;9.50;;;;;;;3.12;57.04;99592.36;1968210;99;25788;-83
2022/12/13 15:40:48;;;;;;;11.97;9.15;;;;;;;3.27;57.08;99598.11;2036059;94;25927;-84
2022/12/13 15:44:39;;;;;;;17.00;8.88;;;;;;;3.52;56.99;99599.55;2083326;94;25733;-85
2022/12/13 15:48:32;;;;;;;12.63;9.60;;;;;;;3.73;56.80;99607.65;2082920;93;25828;-85
2022/12/13 15:52:34;;;;;;;;;;;;;;;;;;;;;
2022/12/13 16:00:06;;;;;;;;;;;;;;;;;;;;;
2022/12/13 16:03:46;;;;;;;11.35;9.78;;;;;;;3.77;56.19;99612.97;2192189;89;25948;-83
2022/12/13 16:07:40;;;;;;;93.22;43.33;;;;;;;3.72;56.02;99615.80;2216397;87;25869;-83
2022/12/13 16:11:17;;;;;;;52.27;24.57;;;;;;;3.71;57.19;99610.56;2262706;85;25231;-83
2022/12/13 16:14:45;;;;;;;40.88;20.05;;;;;;;3.66;56.74;99614.27;2243210;87;25868;-83
2022/12/13 16:18:40;;;;;;;33.10;18.10;;;;;;;3.61;56.48;99615.80;2264847;87;25658;-82
2022/12/13 16:22:23;;;;;;;;;;;;;;;;;;;;;
2022/12/13 16:25:50;;;;;;;21.40;13.28;;;;;;;3.54;56.19;99608.23;2159105;90;25847;-82
2022/12/13 16:32:59;;;;;;;18.20;11.33;;;;;;;3.47;55.99;99616.52;2014200;96;26453;-84
2022/12/13 16:36:48;;;;;;;;;;;;;;;;;;;;;
2022/12/13 16:40:29;;;;;;;16.67;10.70;;;;;;;3.42;55.81;99614.19;2013764;96;25782;-84
2022/12/13 16:44:11;;;;;;;14.63;10.10;;;;;;;3.39;55.74;99623.50;2015197;97;26423;-83
2022/12/13 16:47:31;;;;;;;13.32;9.85;;;;;;;3.36;55.66;99625.94;2028306;97;25882;-84
2022/12/13 16:51:07;;;;;;;13.32;10.40;;;;;;;3.33;55.62;99632.26;2033182;97;26323;-84
2022/12/13 16:58:08;;;;;;;16.52;9.95;;;;;;;3.31;55.51;99627.94;2063339;94;25760;-83
2022/12/13 17:01:31;;;;;;;14.18;10.63;;;;;;;3.30;55.44;99641.61;1983319;98;25326;-82
2022/12/13 17:04:58;;;;;;;16.07;9.73;;;;;;;3.27;55.37;99643.18;2010399;96;25753;-83
2022/12/13 17:08:34;;;;;;;18.75;10.48;;;;;;;3.24;55.32;99646.54;2010232;97;25831;-83
2022/12/13 17:12:07;;;;;;;15.03;11.30;;;;;;;3.24;55.24;99646.54;2012830;96;26045;-85
2022/12/13 17:19:28;;;;;;;17.05;10.63;;;;;;;3.18;55.19;99642.83;2007197;95;26516;-83
2022/12/13 17:23:16;;;;;;;14.35;10.05;;;;;;;3.15;55.14;99651.30;2013504;95;25781;-84
2022/12/13 17:26:48;;;;;;;13.60;10.43;;;;;;;3.14;55.15;99653.42;2117435;92;25839;-84
2022/12/13 17:30:33;;;;;;;16.40;11.18;;;;;;;3.15;55.08;99655.58;2144616;89;25826;-83
2022/12/13 17:34:06;;;;;;;17.15;11.10;;;;;;;3.13;55.05;99661.06;2140211;90;25770;-82
2022/12/13 17:37:45;;;;;;;17.02;10.63;;;;;;;3.11;55.01;99651.13;2144617;92;25759;-85
2022/12/13 17:41:12;;;;;;;18.05;12.00;;;;;;;3.07;54.96;99653.57;2080526;90;25790;-82
2022/12/13 17:44:50;;;;;;;17.87;11.03;;;;;;;3.05;54.99;99658.17;2074676;93;25773;-81
2022/12/13 17:48:19;;;;;;;16.05;11.50;;;;;;;3.04;54.95;99654.73;2069071;95;25844;-81
2022/12/13 17:52:20;;;;;;;;;;;;;;;;;;;;;
2022/12/13 17:55:44;;;;;;;24.15;12.85;;;;;;;3.00;54.92;99663.52;2008330;97;25654;-84
2022/12/13 17:59:09;;;;;;;20.55;13.40;;;;;;;3.01;54.89;99658.45;2003326;98;25843;-83
2022/12/13 18:02:55;;;;;;;18.55;12.13;;;;;;;3.01;54.83;99660.16;2007954;97;25808;-84
2022/12/13 18:06:21;;;;;;;18.70;11.63;;;;;;;2.96;54.81;99661.23;2054616;95;25399;-81
2022/12/13 18:10:08;;;;;;;;;;;;;;;;;;;;;
2022/12/13 18:13:36;;;;;;;19.42;13.60;;;;;;;2.95;54.79;99657.32;1978866;97;25785;-82
2022/12/13 18:17:14;;;;;;;16.65;12.18;;;;;;;2.93;54.76;99670.11;1977001;99;25982;-82
2022/12/13 18:20:45;;;;;;;18.15;12.15;;;;;;;2.88;54.78;99672.91;1977196;98;25677;-82
2022/12/13 18:24:11;;;;;;;16.35;11.85;;;;;;;2.87;54.78;99676.69;1979146;98;25846;-83
2022/12/13 18:27:54;;;;;;;14.83;11.85;;;;;;;2.83;54.80;99677.88;1983545;93;25771;-84
2022/12/13 18:31:27;;;;;;;18.23;12.78;;;;;;;2.81;54.78;99675.63;2003315;97;26006;-83
2022/12/13 18:35:01;;;;;;;18.70;12.25;;;;;;;2.82;54.73;99686.80;2012655;96;25885;-86
2022/12/13 18:38:40;;;;;;;18.10;12.13;;;;;;;2.76;54.73;99682.25;2058506;94;25807;-90
2022/12/13 18:42:09;;;;;;;26.87;12.88;;;;;;;2.72;54.74;99689.37;2096499;94;25957;-86
2022/12/13 18:45:44;;;;;;;20.30;13.05;;;;;;;2.69;54.75;99687.08;2081646;94;25820;-86
2022/12/13 18:49:34;;;;;;;20.17;13.80;;;;;;;2.63;54.81;99694.11;2144477;89;25829;-83
2022/12/13 18:53:03;;;;;;;21.80;13.60;;;;;;;2.58;54.84;99699.48;2161127;89;26148;-87
2022/12/13 18:56:44;;;;;;;;;;;;;;;;;;;;;
2022/12/13 19:00:06;;;;;;;21.25;13.10;;;;;;;2.94;54.91;99709.64;2156268;89;25750;-86
2022/12/13 19:03:50;;;;;;;16.30;11.95;;;;;;;3.16;54.79;99703.27;2195217;88;25802;-85
2022/12/13 19:07:25;;;;;;;16.70;11.90;;;;;;;3.35;54.65;99714.36;2124533;91;25284;-85
2022/12/13 19:11:17;;;;;;;17.10;12.60;;;;;;;3.52;54.48;99721.09;2197027;87;26001;-83
2022/12/13 19:14:46;;;;;;;19.75;13.62;;;;;;;3.65;54.34;99718.20;2258901;86;25828;-83
2022/12/13 19:18:26;;;;;;;20.68;12.90;;;;;;;3.78;54.20;99727.31;2220866;88;25643;-85
2022/12/13 19:22:01;;;;;;;20.20;13.25;;;;;;;3.86;54.06;99720.74;2210590;88;25764;-83
2022/12/13 19:25:33;;;;;;;23.73;13.80;;;;;;;3.94;53.96;99726.19;2207879;88;25606;-82
2022/12/13 19:29:00;;;;;;;19.25;11.78;;;;;;;4.00;53.87;99732.47;2228161;83;25672;-82
2022/12/13 19:32:33;;;;;;;16.70;12.33;;;;;;;4.07;53.77;99725.86;2186095;88;25622;-81
2022/12/13 19:36:29;;;;;;;19.90;12.93;;;;;;;4.11;53.68;99725.15;2208445;88;25893;-82
2022/12/13 19:40:04;;;;;;;18.52;12.15;;;;;;;4.16;53.62;99726.22;2132423;91;26433;-82
2022/12/13 19:43:31;;;;;;;17.65;11.30;;;;;;;4.20;53.49;99729.38;2169503;90;25827;-81
2022/12/13 19:47:09;;;;;;;16.40;12.82;;;;;;;4.25;53.46;99730.84;2180949;90;25728;-81
2022/12/13 19:50:44;;;;;;;15.90;11.88;;;;;;;4.29;53.40;99738.28;2144464;91;25833;-80
2022/12/13 19:54:11;;;;;;;15.35;11.68;;;;;;;4.32;53.31;99739.31;2200794;88;25787;-82
2022/12/13 19:57:39;;;;;;;22.10;11.93;;;;;;;4.34;53.25;99735.48;2135768;90;25792;-83
2022/12/13 20:01:14;;;;;;;19.80;12.00;;;;;;;4.36;53.22;99730.86;2122326;90;26440;-82
2022/12/13 20:04:56;;;;;;;17.20;12.45;;;;;;;4.37;53.14;99735.19;2144469;91;26002;-81
2022/12/13 20:08:32;;;;;;;544.58;326.82;;;;;;;4.39;53.14;99728.39;2141628;91;25732;-82
2022/12/13 20:11:59;;;;;;;457.92;262.60;;;;;;;5.00;60.63;99732.75;2141524;91;25718;-82
2022/12/13 20:15:32;;;;;;;426.60;238.90;;;;;;;5.11;59.10;99739.16;2172466;87;25770;-82
2022/12/13 20:18:59;;;;;;;412.75;231.07;;;;;;;5.10;58.76;99739.58;2218807;88;25671;-82
2022/12/13 20:22:38;;;;;;;396.25;215.32;;;;;;;5.10;58.46;99746.45;2221372;88;25690;-83
2022/12/13 20:26:17;;;;;;;370.10;195.47;;;;;;;5.06;58.26;99754.90;2221983;88;25490;-84
2022/12/13 20:29:49;;;;;;;332.50;177.32;;;;;;;5.06;57.94;99751.02;2217168;86;25743;-82
2022/12/13 20:33:20;;;;;;;305.92;170.47;;;;;;;5.03;57.71;99747.94;2216980;88;26415;-81
2022/12/13 20:36:50;;;;;;;291.98;161.25;;;;;;;5.00;57.42;99751.70;2213763;88;25724;-84
2022/12/13 20:40:23;;;;;;;278.30;151.32;;;;;;;4.98;57.18;99750.77;2230496;88;25686;-84
2022/12/13 20:44:00;;;;;;;276.27;142.82;;;;;;;4.97;57.03;99749.02;2232139;88;25813;-82
2022/12/13 20:47:37;;;;;;;264.72;139.57;;;;;;;4.93;56.83;99748.02;2207315;88;25692;-80
2022/12/13 20:51:07;;;;;;;236.43;133.78;;;;;;;4.90;56.61;99749.20;2257544;87;26243;-81
2022/12/13 20:54:30;;;;;;;238.45;128.53;;;;;;;4.87;56.43;99749.09;2225224;88;25752;-81
2022/12/13 20:57:53;;;;;;;217.32;116.60;;;;;;;4.84;56.30;99753.27;2225324;88;25834;-79
2022/12/13 21:01:22;;;;;;;202.72;113.03;;;;;;;4.83;56.13;99759.27;2226179;88;25613;-82
2022/12/13 21:04:47;;;;;;;195.62;109.57;;;;;;;4.81;56.00;99757.90;2187840;88;25779;-83
2022/12/13 21:12:06;;;;;;;164.97;91.32;;;;;;;4.77;55.73;99759.03;2187059;90;25724;-80
2022/12/13 21:15:32;;;;;;;158.07;86.80;;;;;;;4.73;55.56;99770.95;2189004;90;25834;-78
2022/12/13 21:19:00;;;;;;;142.10;80.50;;;;;;;4.69;55.47;99763.51;2188543;89;25747;-83
